createdAt,value
2022-11-10T00:04:14.174Z,107.50
2022-11-10T00:10:57.340Z,99.25
2022-11-10T00:17:18.229Z,100.30
2022-11-10T00:23:39.071Z,105.43
2022-11-10T00:29:59.849Z,103.85
2022-11-10T00:36:20.731Z,100.30
2022-11-10T00:42:41.982Z,93.25
2022-11-10T00:49:02.658Z,109.28
2022-11-10T00:55:23.738Z,101.93
2022-11-10T01:01:44.626Z,103.57
2022-11-10T01:08:05.977Z,96.28
2022-11-10T01:14:26.479Z,95.47
2022-11-10T01:20:53.790Z,89.55
2022-11-10T01:27:14.441Z,88.50
2022-11-10T01:33:36.051Z,87.93
2022-11-10T01:39:57.034Z,123.82
2022-11-10T01:46:17.942Z,102.32
2022-11-10T01:52:38.864Z,97.25
2022-11-10T01:59:05.717Z,91.55
2022-11-10T02:05:27.253Z,101.47
2022-11-10T02:11:49.904Z,115.35
2022-11-10T02:18:10.720Z,105.15
2022-11-10T02:24:31.448Z,106.35
2022-11-10T02:30:52.364Z,93.32
2022-11-10T02:37:13.388Z,86.78
2022-11-10T02:43:34.995Z,88.05
2022-11-10T02:49:55.810Z,76.50
2022-11-10T02:56:16.814Z,79.25
2022-11-10T03:02:38.021Z,84.00
2022-11-10T03:08:59.039Z,86.10
2022-11-10T03:15:19.690Z,89.72
2022-11-10T03:21:40.700Z,84.68
2022-11-10T03:28:01.449Z,68.05
2022-11-10T03:34:22.514Z,75.47
2022-11-10T03:41:16.992Z,82.28
2022-11-10T03:47:24.102Z,82.35
2022-11-10T03:53:44.790Z,72.40
2022-11-10T04:00:06.574Z,70.57
2022-11-10T04:06:45.861Z,69.57
2022-11-10T04:13:25.135Z,75.07
2022-11-10T04:19:45.863Z,71.20
2022-11-10T04:26:27.674Z,91.18
2022-11-10T04:32:48.601Z,67.13
2022-11-10T04:39:11.173Z,69.18
2022-11-10T04:45:33.594Z,71.35
2022-11-10T04:51:54.580Z,73.10
2022-11-10T04:58:15.605Z,69.55
2022-11-10T05:04:36.595Z,70.72
2022-11-10T05:10:57.743Z,71.53
2022-11-10T05:17:18.443Z,75.05
2022-11-10T05:23:39.517Z,81.22
2022-11-10T05:30:00.410Z,76.35
2022-11-10T05:36:21.239Z,72.25
2022-11-10T05:42:48.423Z,71.70
2022-11-10T05:49:09.353Z,69.00
2022-11-10T05:55:30.546Z,68.03
2022-11-10T06:01:51.252Z,83.10
2022-11-10T06:08:12.519Z,65.55
2022-11-10T06:14:33.246Z,58.88
2022-11-10T06:20:54.198Z,69.93
2022-11-10T06:27:15.186Z,58.47
2022-11-10T06:33:36.037Z,59.65
2022-11-10T06:39:56.602Z,59.85
2022-11-10T06:46:17.322Z,159.90
2022-11-10T06:52:38.495Z,84.93
2022-11-10T06:58:59.137Z,65.20
2022-11-10T07:05:20.193Z,67.75
2022-11-10T07:11:41.091Z,70.95
2022-11-10T07:18:03.553Z,62.67
2022-11-10T07:24:24.201Z,74.13
2022-11-10T07:30:45.928Z,57.00
2022-11-10T07:37:06.606Z,37.60
2022-11-10T07:43:27.474Z,52.97
2022-11-10T07:49:48.738Z,60.38
2022-11-10T07:56:09.889Z,49.42
2022-11-10T08:02:31.085Z,74.57
2022-11-10T08:08:52.245Z,70.03
2022-11-10T08:15:12.823Z,60.17
2022-11-10T08:21:33.742Z,58.67
2022-11-10T08:28:02.317Z,63.58
2022-11-10T08:34:23.702Z,68.63
2022-11-10T08:40:45.096Z,62.63
2022-11-10T08:47:06.035Z,55.05
2022-11-10T08:53:27.520Z,50.63
2022-11-10T08:59:48.305Z,37.00
2022-11-10T09:06:09.612Z,52.45
2022-11-10T09:12:30.334Z,66.40
2022-11-10T09:18:51.648Z,51.05
2022-11-10T09:25:12.405Z,39.15
2022-11-10T09:31:33.190Z,45.40
2022-11-10T09:37:54.126Z,41.28
2022-11-10T09:44:23.710Z,41.15
2022-11-10T09:50:56.387Z,38.70
2022-11-10T09:57:22.131Z,46.55
2022-11-10T10:03:59.970Z,37.90
2022-11-10T10:10:30.113Z,42.67
2022-11-10T10:17:02.930Z,42.50
2022-11-10T10:24:02.628Z,46.35
2022-11-10T10:30:20.997Z,43.37
2022-11-10T10:36:41.813Z,40.78
2022-11-10T10:43:04.142Z,46.40
2022-11-10T10:49:30.985Z,47.80
2022-11-10T10:56:02.417Z,52.75
2022-11-10T11:02:31.899Z,49.85
2022-11-10T11:08:59.733Z,62.08
2022-11-10T11:15:28.620Z,40.85
2022-11-10T11:22:02.334Z,41.35
2022-11-10T11:28:38.462Z,43.60
2022-11-10T11:35:22.742Z,36.53
2022-11-10T11:42:19.076Z,45.63
2022-11-10T11:49:37.970Z,42.35
2022-11-10T11:56:19.073Z,50.40
2022-11-10T12:03:05.109Z,47.70
2022-11-10T12:09:28.679Z,48.88
2022-11-10T12:15:59.934Z,49.05
2022-11-10T12:22:48.261Z,59.97
2022-11-10T12:29:31.807Z,63.03
2022-11-10T12:35:55.401Z,55.92
2022-11-10T12:42:21.787Z,82.05
2022-11-10T12:49:14.814Z,56.83
2022-11-10T12:55:40.757Z,48.65
2022-11-10T13:02:25.105Z,58.38
2022-11-10T13:15:46.674Z,58.97
2022-11-10T13:22:12.265Z,45.55
2022-11-10T13:28:48.105Z,59.67
2022-11-10T13:35:30.517Z,60.22
2022-11-10T13:42:00.137Z,63.35
2022-11-10T13:48:29.966Z,46.33
2022-11-10T13:55:14.745Z,45.90
2022-11-10T14:01:36.600Z,40.40
2022-11-10T14:08:14.776Z,61.95
2022-11-10T14:15:02.741Z,45.63
2022-11-10T14:21:32.302Z,48.00
2022-11-10T14:27:57.955Z,39.80
2022-11-10T14:34:19.878Z,54.70
2022-11-10T14:40:42.180Z,58.85
2022-11-10T14:47:26.810Z,52.50
2022-11-10T14:53:49.794Z,51.53
2022-11-10T15:00:25.404Z,34.97
2022-11-10T15:06:49.317Z,41.38
2022-11-10T15:13:13.121Z,52.67
2022-11-10T15:19:39.658Z,45.65
2022-11-10T15:26:00.521Z,44.35
2022-11-10T15:32:23.747Z,50.33
2022-11-10T15:38:44.330Z,48.07
2022-11-10T15:45:06.132Z,60.22
2022-11-10T15:51:26.806Z,56.60
2022-11-10T15:57:47.710Z,59.97
2022-11-10T16:04:12.467Z,57.92
2022-11-10T16:10:35.365Z,53.00
2022-11-10T16:16:56.758Z,69.35
2022-11-10T16:23:18.989Z,68.28
2022-11-10T16:29:40.780Z,88.97
2022-11-10T16:36:01.769Z,70.28
2022-11-10T16:42:22.775Z,77.35
2022-11-10T16:48:47.172Z,75.43
2022-11-10T16:55:12.533Z,69.97
2022-11-10T17:01:35.887Z,84.22
2022-11-10T17:14:20.709Z,74.82
2022-11-10T17:20:45.329Z,85.07
2022-11-10T17:27:10.661Z,102.13
2022-11-10T17:33:31.602Z,98.13
2022-11-10T17:39:52.383Z,81.50
2022-11-10T17:46:14.712Z,74.00
2022-11-10T17:52:35.326Z,86.22
2022-11-10T17:58:56.542Z,97.60
2022-11-10T18:05:18.408Z,86.40
2022-11-10T18:11:40.741Z,103.20
2022-11-10T18:18:01.831Z,90.18
2022-11-10T18:24:22.662Z,85.93
2022-11-10T18:30:43.996Z,97.10
2022-11-10T18:37:04.758Z,94.38
2022-11-10T18:43:26.244Z,80.43
2022-11-10T18:49:50.127Z,91.22
2022-11-10T19:02:32.115Z,89.15
2022-11-10T19:08:52.850Z,105.57
2022-11-10T19:15:13.676Z,85.70
2022-11-10T19:21:35.710Z,92.53
2022-11-10T19:27:58.335Z,93.90
2022-11-10T19:34:19.719Z,85.65
2022-11-10T19:40:42.929Z,94.90
2022-11-10T19:53:27.391Z,96.57
2022-11-10T19:59:48.613Z,83.97
2022-11-10T20:06:22.481Z,82.72
2022-11-10T20:12:43.309Z,81.05
2022-11-10T20:19:04.153Z,89.57
2022-11-10T20:25:25.360Z,93.75
2022-11-10T20:31:46.379Z,76.97
2022-11-10T20:38:07.260Z,93.32
2022-11-10T20:44:28.183Z,93.22
2022-11-10T20:50:48.890Z,81.28
2022-11-10T20:57:10.085Z,86.40
2022-11-10T21:03:32.739Z,86.47
2022-11-10T21:09:53.417Z,82.82
2022-11-10T21:16:14.594Z,85.97
2022-11-10T21:22:35.664Z,98.78
2022-11-10T21:28:56.931Z,89.32
2022-11-10T21:35:18.061Z,87.72
2022-11-10T21:41:39.232Z,89.57
2022-11-10T21:48:03.732Z,82.20
2022-11-10T21:54:25.261Z,86.03
2022-11-10T22:00:46.000Z,89.53
2022-11-10T22:07:24.761Z,93.30
2022-11-10T22:14:04.302Z,110.10
2022-11-10T22:20:25.511Z,96.57
2022-11-10T22:26:46.761Z,95.47
2022-11-10T22:33:27.907Z,84.60
2022-11-10T22:40:07.265Z,91.43
2022-11-10T22:46:28.539Z,100.53
2022-11-10T22:52:49.200Z,96.40
2022-11-10T22:59:11.308Z,96.18
2022-11-10T23:05:36.347Z,95.53
2022-11-10T23:11:58.002Z,82.45
2022-11-10T23:18:19.459Z,93.80
2022-11-10T23:24:40.786Z,86.75
2022-11-10T23:31:15.531Z,93.47
2022-11-10T23:37:36.250Z,90.53
2022-11-10T23:43:57.417Z,97.38
2022-11-10T23:50:18.167Z,99.47
2022-11-10T23:56:39.033Z,100.05
